sensor_id;sensor_type;location;lat;lon;timestamp;P1;durP1;ratioP1;P2;durP2;ratioP2
71914;SDS011;60387;49.994;14.660;2022-08-01T00:00:54;6.03;;;3.00;;
71914;SDS011;60387;49.994;14.660;2022-08-01T00:03:27;6.63;;;3.30;;
71914;SDS011;60387;49.994;14.660;2022-08-01T00:06:00;6.30;;;3.50;;
71914;SDS011;60387;49.994;14.660;2022-08-01T00:08:34;8.37;;;3.70;;
71914;SDS011;60387;49.994;14.660;2022-08-01T00:11:07;6.87;;;3.63;;
71914;SDS011;60387;49.994;14.660;2022-08-01T00:13:40;9.38;;;3.75;;
71914;SDS011;60387;49.994;14.660;2022-08-01T00:16:13;7.77;;;3.70;;
71914;SDS011;60387;49.994;14.660;2022-08-01T00:18:47;7.87;;;3.90;;
71914;SDS011;60387;49.994;14.660;2022-08-01T00:21:20;8.50;;;4.13;;
71914;SDS011;60387;49.994;14.660;2022-08-01T00:23:53;6.93;;;3.77;;
71914;SDS011;60387;49.994;14.660;2022-08-01T00:26:27;7.90;;;3.73;;
71914;SDS011;60387;49.994;14.660;2022-08-01T00:29:00;6.93;;;3.70;;
71914;SDS011;60387;49.994;14.660;2022-08-01T00:31:33;8.03;;;4.43;;
71914;SDS011;60387;49.994;14.660;2022-08-01T00:34:06;7.37;;;3.47;;
71914;SDS011;60387;49.994;14.660;2022-08-01T00:36:40;8.10;;;3.67;;
71914;SDS011;60387;49.994;14.660;2022-08-01T00:39:13;6.73;;;3.90;;
71914;SDS011;60387;49.994;14.660;2022-08-01T00:41:46;6.60;;;3.67;;
71914;SDS011;60387;49.994;14.660;2022-08-01T00:44:20;7.27;;;3.83;;
71914;SDS011;60387;49.994;14.660;2022-08-01T00:46:53;6.30;;;3.40;;
71914;SDS011;60387;49.994;14.660;2022-08-01T00:49:26;6.77;;;3.77;;
71914;SDS011;60387;49.994;14.660;2022-08-01T00:52:00;7.05;;;3.75;;
71914;SDS011;60387;49.994;14.660;2022-08-01T00:54:36;7.00;;;3.90;;
71914;SDS011;60387;49.994;14.660;2022-08-01T00:57:10;7.50;;;4.07;;
71914;SDS011;60387;49.994;14.660;2022-08-01T00:59:43;7.03;;;3.97;;
71914;SDS011;60387;49.994;14.660;2022-08-01T01:02:16;7.00;;;3.73;;
71914;SDS011;60387;49.994;14.660;2022-08-01T01:04:49;8.50;;;4.03;;
71914;SDS011;60387;49.994;14.660;2022-08-01T01:07:32;8.57;;;4.03;;
71914;SDS011;60387;49.994;14.660;2022-08-01T01:10:21;10.45;;;4.43;;
71914;SDS011;60387;49.994;14.660;2022-08-01T01:13:04;7.93;;;4.80;;
71914;SDS011;60387;49.994;14.660;2022-08-01T01:15:59;8.67;;;4.27;;
71914;SDS011;60387;49.994;14.660;2022-08-01T01:18:38;8.63;;;4.60;;
71914;SDS011;60387;49.994;14.660;2022-08-01T01:26:34;8.77;;;4.60;;
71914;SDS011;60387;49.994;14.660;2022-08-01T01:31:51;10.90;;;4.88;;
71914;SDS011;60387;49.994;14.660;2022-08-01T01:34:45;8.85;;;4.70;;
71914;SDS011;60387;49.994;14.660;2022-08-01T01:37:23;7.70;;;4.63;;
71914;SDS011;60387;49.994;14.660;2022-08-01T01:39:59;9.30;;;4.40;;
71914;SDS011;60387;49.994;14.660;2022-08-01T01:42:34;8.63;;;4.53;;
71914;SDS011;60387;49.994;14.660;2022-08-01T01:45:08;8.43;;;4.47;;
71914;SDS011;60387;49.994;14.660;2022-08-01T01:47:43;8.15;;;4.40;;
71914;SDS011;60387;49.994;14.660;2022-08-01T01:50:19;8.57;;;4.45;;
71914;SDS011;60387;49.994;14.660;2022-08-01T01:52:54;8.68;;;4.40;;
71914;SDS011;60387;49.994;14.660;2022-08-01T01:55:29;7.77;;;3.87;;
71914;SDS011;60387;49.994;14.660;2022-08-01T01:58:03;8.82;;;3.95;;
71914;SDS011;60387;49.994;14.660;2022-08-01T02:00:39;7.13;;;4.28;;
71914;SDS011;60387;49.994;14.660;2022-08-01T02:03:15;9.53;;;4.20;;
71914;SDS011;60387;49.994;14.660;2022-08-01T02:05:51;6.28;;;3.80;;
71914;SDS011;60387;49.994;14.660;2022-08-01T02:08:27;7.93;;;4.40;;
71914;SDS011;60387;49.994;14.660;2022-08-01T02:11:03;7.38;;;4.13;;
71914;SDS011;60387;49.994;14.660;2022-08-01T02:13:38;8.23;;;4.40;;
71914;SDS011;60387;49.994;14.660;2022-08-01T02:16:13;8.23;;;4.40;;
71914;SDS011;60387;49.994;14.660;2022-08-01T02:18:48;7.47;;;4.13;;
71914;SDS011;60387;49.994;14.660;2022-08-01T02:21:29;9.33;;;4.40;;
71914;SDS011;60387;49.994;14.660;2022-08-01T02:26:53;7.60;;;4.80;;
71914;SDS011;60387;49.994;14.660;2022-08-01T02:29:37;7.68;;;4.43;;
71914;SDS011;60387;49.994;14.660;2022-08-01T02:32:19;8.07;;;4.38;;
71914;SDS011;60387;49.994;14.660;2022-08-01T02:34:57;7.50;;;4.53;;
71914;SDS011;60387;49.994;14.660;2022-08-01T02:37:34;8.13;;;4.17;;
71914;SDS011;60387;49.994;14.660;2022-08-01T02:40:10;7.82;;;4.40;;
71914;SDS011;60387;49.994;14.660;2022-08-01T02:42:50;7.25;;;4.60;;
71914;SDS011;60387;49.994;14.660;2022-08-01T02:45:26;8.90;;;4.28;;
71914;SDS011;60387;49.994;14.660;2022-08-01T02:48:01;8.13;;;4.60;;
71914;SDS011;60387;49.994;14.660;2022-08-01T02:50:42;7.20;;;3.97;;
71914;SDS011;60387;49.994;14.660;2022-08-01T02:53:18;9.02;;;4.75;;
71914;SDS011;60387;49.994;14.660;2022-08-01T02:55:53;10.15;;;4.18;;
71914;SDS011;60387;49.994;14.660;2022-08-01T02:58:28;7.15;;;4.18;;
71914;SDS011;60387;49.994;14.660;2022-08-01T03:01:02;8.87;;;4.70;;
71914;SDS011;60387;49.994;14.660;2022-08-01T03:03:37;8.63;;;4.30;;
71914;SDS011;60387;49.994;14.660;2022-08-01T03:06:11;8.88;;;4.15;;
71914;SDS011;60387;49.994;14.660;2022-08-01T03:08:46;7.63;;;4.57;;
71914;SDS011;60387;49.994;14.660;2022-08-01T03:11:20;8.65;;;4.40;;
71914;SDS011;60387;49.994;14.660;2022-08-01T03:13:58;9.25;;;4.63;;
71914;SDS011;60387;49.994;14.660;2022-08-01T03:16:35;8.52;;;4.35;;
71914;SDS011;60387;49.994;14.660;2022-08-01T03:19:11;8.88;;;4.28;;
71914;SDS011;60387;49.994;14.660;2022-08-01T03:21:46;7.50;;;4.30;;
71914;SDS011;60387;49.994;14.660;2022-08-01T03:24:21;8.48;;;4.68;;
71914;SDS011;60387;49.994;14.660;2022-08-01T03:26:56;7.75;;;4.00;;
71914;SDS011;60387;49.994;14.660;2022-08-01T03:29:30;6.90;;;4.22;;
71914;SDS011;60387;49.994;14.660;2022-08-01T03:32:05;7.55;;;4.50;;
71914;SDS011;60387;49.994;14.660;2022-08-01T03:34:39;7.03;;;4.63;;
71914;SDS011;60387;49.994;14.660;2022-08-01T03:39:54;9.00;;;4.60;;
71914;SDS011;60387;49.994;14.660;2022-08-01T03:42:36;9.03;;;4.67;;
71914;SDS011;60387;49.994;14.660;2022-08-01T03:45:15;7.97;;;4.53;;
71914;SDS011;60387;49.994;14.660;2022-08-01T03:47:55;8.35;;;4.90;;
71914;SDS011;60387;49.994;14.660;2022-08-01T03:50:33;7.47;;;4.43;;
71914;SDS011;60387;49.994;14.660;2022-08-01T03:53:10;8.25;;;4.70;;
71914;SDS011;60387;49.994;14.660;2022-08-01T03:55:44;9.50;;;4.73;;
71914;SDS011;60387;49.994;14.660;2022-08-01T03:58:17;9.25;;;4.40;;
71914;SDS011;60387;49.994;14.660;2022-08-01T04:00:51;8.10;;;4.83;;
71914;SDS011;60387;49.994;14.660;2022-08-01T04:03:25;7.22;;;4.25;;
71914;SDS011;60387;49.994;14.660;2022-08-01T04:05:58;7.53;;;4.10;;
71914;SDS011;60387;49.994;14.660;2022-08-01T04:08:35;7.77;;;3.90;;
71914;SDS011;60387;49.994;14.660;2022-08-01T04:11:09;9.00;;;4.25;;
71914;SDS011;60387;49.994;14.660;2022-08-01T04:13:43;7.67;;;3.80;;
71914;SDS011;60387;49.994;14.660;2022-08-01T04:16:16;8.30;;;4.10;;
71914;SDS011;60387;49.994;14.660;2022-08-01T04:18:49;7.90;;;4.37;;
71914;SDS011;60387;49.994;14.660;2022-08-01T04:21:24;7.38;;;3.90;;
71914;SDS011;60387;49.994;14.660;2022-08-01T04:23:59;7.82;;;3.90;;
71914;SDS011;60387;49.994;14.660;2022-08-01T04:26:36;7.00;;;4.00;;
71914;SDS011;60387;49.994;14.660;2022-08-01T04:29:12;6.95;;;4.10;;
71914;SDS011;60387;49.994;14.660;2022-08-01T04:31:48;6.78;;;4.00;;
71914;SDS011;60387;49.994;14.660;2022-08-01T04:34:23;8.02;;;4.00;;
71914;SDS011;60387;49.994;14.660;2022-08-01T04:36:59;5.95;;;3.42;;
71914;SDS011;60387;49.994;14.660;2022-08-01T04:39:33;7.30;;;4.00;;
71914;SDS011;60387;49.994;14.660;2022-08-01T04:42:08;6.78;;;3.65;;
71914;SDS011;60387;49.994;14.660;2022-08-01T04:44:44;6.40;;;4.00;;
71914;SDS011;60387;49.994;14.660;2022-08-01T04:47:17;6.57;;;3.70;;
71914;SDS011;60387;49.994;14.660;2022-08-01T04:49:52;5.93;;;3.63;;
71914;SDS011;60387;49.994;14.660;2022-08-01T04:52:32;7.55;;;3.90;;
71914;SDS011;60387;49.994;14.660;2022-08-01T04:55:07;7.38;;;3.60;;
71914;SDS011;60387;49.994;14.660;2022-08-01T04:57:43;8.82;;;4.05;;
71914;SDS011;60387;49.994;14.660;2022-08-01T05:00:17;7.80;;;3.95;;
71914;SDS011;60387;49.994;14.660;2022-08-01T05:02:51;6.50;;;3.67;;
71914;SDS011;60387;49.994;14.660;2022-08-01T05:05:24;6.73;;;3.50;;
71914;SDS011;60387;49.994;14.660;2022-08-01T05:07:57;8.53;;;3.83;;
71914;SDS011;60387;49.994;14.660;2022-08-01T05:10:30;7.73;;;3.57;;
71914;SDS011;60387;49.994;14.660;2022-08-01T05:13:04;7.70;;;3.87;;
71914;SDS011;60387;49.994;14.660;2022-08-01T05:15:37;7.80;;;3.50;;
71914;SDS011;60387;49.994;14.660;2022-08-01T05:18:10;9.53;;;3.93;;
71914;SDS011;60387;49.994;14.660;2022-08-01T05:20:44;7.60;;;3.80;;
71914;SDS011;60387;49.994;14.660;2022-08-01T05:23:17;6.40;;;3.47;;
71914;SDS011;60387;49.994;14.660;2022-08-01T05:25:50;6.90;;;3.20;;
71914;SDS011;60387;49.994;14.660;2022-08-01T05:28:24;6.47;;;3.45;;
71914;SDS011;60387;49.994;14.660;2022-08-01T05:30:57;6.50;;;3.43;;
71914;SDS011;60387;49.994;14.660;2022-08-01T05:33:30;7.53;;;3.50;;
71914;SDS011;60387;49.994;14.660;2022-08-01T05:36:04;7.77;;;3.77;;
71914;SDS011;60387;49.994;14.660;2022-08-01T05:38:37;7.67;;;3.90;;
71914;SDS011;60387;49.994;14.660;2022-08-01T05:41:10;7.50;;;3.50;;
71914;SDS011;60387;49.994;14.660;2022-08-01T05:43:44;5.97;;;3.55;;
71914;SDS011;60387;49.994;14.660;2022-08-01T05:46:17;7.30;;;3.63;;
71914;SDS011;60387;49.994;14.660;2022-08-01T05:48:50;6.87;;;3.87;;
71914;SDS011;60387;49.994;14.660;2022-08-01T05:51:24;6.73;;;3.70;;
71914;SDS011;60387;49.994;14.660;2022-08-01T05:53:57;6.30;;;3.50;;
71914;SDS011;60387;49.994;14.660;2022-08-01T05:56:31;6.67;;;4.23;;
71914;SDS011;60387;49.994;14.660;2022-08-01T05:59:04;7.67;;;3.70;;
71914;SDS011;60387;49.994;14.660;2022-08-01T06:01:37;6.80;;;3.57;;
71914;SDS011;60387;49.994;14.660;2022-08-01T06:04:10;5.57;;;3.47;;
71914;SDS011;60387;49.994;14.660;2022-08-01T06:06:44;7.07;;;3.43;;
71914;SDS011;60387;49.994;14.660;2022-08-01T06:09:17;6.40;;;3.57;;
71914;SDS011;60387;49.994;14.660;2022-08-01T06:11:50;6.13;;;3.20;;
71914;SDS011;60387;49.994;14.660;2022-08-01T06:14:23;6.40;;;3.20;;
71914;SDS011;60387;49.994;14.660;2022-08-01T06:16:57;5.93;;;3.37;;
71914;SDS011;60387;49.994;14.660;2022-08-01T06:19:30;6.60;;;3.10;;
71914;SDS011;60387;49.994;14.660;2022-08-01T06:22:03;6.37;;;3.00;;
71914;SDS011;60387;49.994;14.660;2022-08-01T06:24:37;6.33;;;3.30;;
71914;SDS011;60387;49.994;14.660;2022-08-01T06:27:10;6.27;;;3.13;;
71914;SDS011;60387;49.994;14.660;2022-08-01T06:29:43;6.10;;;2.80;;
71914;SDS011;60387;49.994;14.660;2022-08-01T06:32:16;7.47;;;3.00;;
71914;SDS011;60387;49.994;14.660;2022-08-01T06:34:50;5.43;;;2.97;;
71914;SDS011;60387;49.994;14.660;2022-08-01T06:37:23;5.90;;;3.00;;
71914;SDS011;60387;49.994;14.660;2022-08-01T06:40:00;6.80;;;2.80;;
71914;SDS011;60387;49.994;14.660;2022-08-01T06:42:41;5.55;;;2.80;;
71914;SDS011;60387;49.994;14.660;2022-08-01T06:45:14;6.73;;;3.17;;
71914;SDS011;60387;49.994;14.660;2022-08-01T06:47:48;6.45;;;2.78;;
71914;SDS011;60387;49.994;14.660;2022-08-01T06:50:21;6.70;;;3.37;;
71914;SDS011;60387;49.994;14.660;2022-08-01T06:52:55;5.50;;;3.03;;
71914;SDS011;60387;49.994;14.660;2022-08-01T06:55:28;7.87;;;3.17;;
71914;SDS011;60387;49.994;14.660;2022-08-01T06:58:01;7.60;;;3.40;;
71914;SDS011;60387;49.994;14.660;2022-08-01T07:00:35;6.47;;;3.30;;
71914;SDS011;60387;49.994;14.660;2022-08-01T07:03:08;8.00;;;3.77;;
71914;SDS011;60387;49.994;14.660;2022-08-01T07:05:41;7.30;;;3.50;;
71914;SDS011;60387;49.994;14.660;2022-08-01T07:08:14;6.50;;;3.30;;
71914;SDS011;60387;49.994;14.660;2022-08-01T07:10:48;7.07;;;3.67;;
71914;SDS011;60387;49.994;14.660;2022-08-01T07:13:21;6.28;;;3.30;;
71914;SDS011;60387;49.994;14.660;2022-08-01T07:15:54;6.17;;;3.27;;
71914;SDS011;60387;49.994;14.660;2022-08-01T07:18:27;7.80;;;3.50;;
71914;SDS011;60387;49.994;14.660;2022-08-01T07:21:01;6.57;;;2.77;;
71914;SDS011;60387;49.994;14.660;2022-08-01T07:23:34;6.23;;;2.60;;
71914;SDS011;60387;49.994;14.660;2022-08-01T07:26:07;5.57;;;2.80;;
71914;SDS011;60387;49.994;14.660;2022-08-01T07:28:41;5.87;;;3.10;;
71914;SDS011;60387;49.994;14.660;2022-08-01T07:31:14;6.40;;;3.47;;
71914;SDS011;60387;49.994;14.660;2022-08-01T07:33:47;7.55;;;3.10;;
71914;SDS011;60387;49.994;14.660;2022-08-01T07:36:20;7.57;;;3.37;;
71914;SDS011;60387;49.994;14.660;2022-08-01T07:38:54;7.43;;;3.10;;
71914;SDS011;60387;49.994;14.660;2022-08-01T07:41:27;6.37;;;2.80;;
71914;SDS011;60387;49.994;14.660;2022-08-01T07:44:01;6.80;;;3.17;;
71914;SDS011;60387;49.994;14.660;2022-08-01T07:46:34;6.83;;;2.80;;
71914;SDS011;60387;49.994;14.660;2022-08-01T07:49:07;6.07;;;3.10;;
71914;SDS011;60387;49.994;14.660;2022-08-01T07:51:40;6.05;;;3.20;;
71914;SDS011;60387;49.994;14.660;2022-08-01T07:54:14;5.87;;;2.90;;
71914;SDS011;60387;49.994;14.660;2022-08-01T07:56:47;7.13;;;2.90;;
71914;SDS011;60387;49.994;14.660;2022-08-01T07:59:20;6.47;;;3.50;;
71914;SDS011;60387;49.994;14.660;2022-08-01T08:01:54;7.10;;;3.23;;
71914;SDS011;60387;49.994;14.660;2022-08-01T08:04:27;8.67;;;3.07;;
71914;SDS011;60387;49.994;14.660;2022-08-01T08:07:01;7.00;;;3.22;;
71914;SDS011;60387;49.994;14.660;2022-08-01T08:09:35;5.57;;;2.70;;
71914;SDS011;60387;49.994;14.660;2022-08-01T08:12:09;6.70;;;2.87;;
71914;SDS011;60387;49.994;14.660;2022-08-01T08:14:42;6.37;;;2.67;;
71914;SDS011;60387;49.994;14.660;2022-08-01T08:17:16;7.50;;;2.73;;
71914;SDS011;60387;49.994;14.660;2022-08-01T08:19:49;5.23;;;2.37;;
71914;SDS011;60387;49.994;14.660;2022-08-01T08:22:22;5.43;;;2.33;;
71914;SDS011;60387;49.994;14.660;2022-08-01T08:24:56;4.87;;;2.43;;
71914;SDS011;60387;49.994;14.660;2022-08-01T08:27:29;5.27;;;2.60;;
71914;SDS011;60387;49.994;14.660;2022-08-01T08:30:04;5.35;;;2.60;;
71914;SDS011;60387;49.994;14.660;2022-08-01T08:32:38;5.18;;;2.70;;
71914;SDS011;60387;49.994;14.660;2022-08-01T08:35:12;6.63;;;2.63;;
71914;SDS011;60387;49.994;14.660;2022-08-01T08:37:45;5.87;;;2.50;;
71914;SDS011;60387;49.994;14.660;2022-08-01T08:40:19;7.00;;;2.80;;
71914;SDS011;60387;49.994;14.660;2022-08-01T08:42:56;4.30;;;2.13;;
71914;SDS011;60387;49.994;14.660;2022-08-01T08:45:33;5.25;;;2.40;;
71914;SDS011;60387;49.994;14.660;2022-08-01T08:48:06;6.32;;;2.20;;
71914;SDS011;60387;49.994;14.660;2022-08-01T08:50:40;4.60;;;2.30;;
71914;SDS011;60387;49.994;14.660;2022-08-01T08:53:16;5.53;;;2.40;;
71914;SDS011;60387;49.994;14.660;2022-08-01T08:55:51;6.32;;;2.60;;
71914;SDS011;60387;49.994;14.660;2022-08-01T08:58:26;5.22;;;2.70;;
71914;SDS011;60387;49.994;14.660;2022-08-01T09:00:59;5.73;;;2.63;;
71914;SDS011;60387;49.994;14.660;2022-08-01T09:03:32;6.03;;;2.80;;
71914;SDS011;60387;49.994;14.660;2022-08-01T09:06:06;4.93;;;2.20;;
71914;SDS011;60387;49.994;14.660;2022-08-01T09:08:39;4.53;;;2.50;;
71914;SDS011;60387;49.994;14.660;2022-08-01T09:11:13;6.30;;;2.73;;
71914;SDS011;60387;49.994;14.660;2022-08-01T09:14:08;4.33;;;2.03;;
71914;SDS011;60387;49.994;14.660;2022-08-01T09:16:43;6.57;;;2.42;;
71914;SDS011;60387;49.994;14.660;2022-08-01T09:19:19;5.78;;;2.50;;
71914;SDS011;60387;49.994;14.660;2022-08-01T09:21:57;4.97;;;2.60;;
71914;SDS011;60387;49.994;14.660;2022-08-01T09:24:35;5.45;;;2.40;;
71914;SDS011;60387;49.994;14.660;2022-08-01T09:27:19;6.05;;;2.70;;
71914;SDS011;60387;49.994;14.660;2022-08-01T09:29:53;5.97;;;2.85;;
71914;SDS011;60387;49.994;14.660;2022-08-01T09:32:30;6.80;;;2.93;;
71914;SDS011;60387;49.994;14.660;2022-08-01T09:35:23;5.67;;;2.80;;
71914;SDS011;60387;49.994;14.660;2022-08-01T09:40:54;6.18;;;2.60;;
71914;SDS011;60387;49.994;14.660;2022-08-01T09:43:30;4.82;;;2.17;;
71914;SDS011;60387;49.994;14.660;2022-08-01T09:46:04;4.28;;;2.47;;
71914;SDS011;60387;49.994;14.660;2022-08-01T09:51:36;5.57;;;2.75;;
71914;SDS011;60387;49.994;14.660;2022-08-01T09:54:10;5.35;;;2.50;;
71914;SDS011;60387;49.994;14.660;2022-08-01T09:56:43;5.57;;;2.30;;
71914;SDS011;60387;49.994;14.660;2022-08-01T09:59:17;6.23;;;2.30;;
71914;SDS011;60387;49.994;14.660;2022-08-01T10:01:50;3.88;;;2.20;;
71914;SDS011;60387;49.994;14.660;2022-08-01T10:04:23;4.80;;;2.17;;
71914;SDS011;60387;49.994;14.660;2022-08-01T10:07:03;4.83;;;2.30;;
71914;SDS011;60387;49.994;14.660;2022-08-01T10:09:38;5.50;;;2.40;;
71914;SDS011;60387;49.994;14.660;2022-08-01T10:12:12;4.93;;;2.20;;
71914;SDS011;60387;49.994;14.660;2022-08-01T10:14:47;5.10;;;2.10;;
71914;SDS011;60387;49.994;14.660;2022-08-01T10:17:24;4.90;;;2.50;;
71914;SDS011;60387;49.994;14.660;2022-08-01T10:19:57;3.65;;;1.90;;
71914;SDS011;60387;49.994;14.660;2022-08-01T10:22:34;3.90;;;2.08;;
71914;SDS011;60387;49.994;14.660;2022-08-01T10:25:08;3.97;;;1.80;;
71914;SDS011;60387;49.994;14.660;2022-08-01T10:27:42;5.95;;;1.65;;
71914;SDS011;60387;49.994;14.660;2022-08-01T10:30:16;5.67;;;1.63;;
71914;SDS011;60387;49.994;14.660;2022-08-01T10:32:50;4.57;;;1.70;;
71914;SDS011;60387;49.994;14.660;2022-08-01T10:35:24;3.15;;;1.52;;
71914;SDS011;60387;49.994;14.660;2022-08-01T10:37:57;5.20;;;1.83;;
71914;SDS011;60387;49.994;14.660;2022-08-01T10:40:30;4.03;;;1.77;;
71914;SDS011;60387;49.994;14.660;2022-08-01T10:43:04;4.10;;;1.80;;
71914;SDS011;60387;49.994;14.660;2022-08-01T10:45:38;3.90;;;1.73;;
71914;SDS011;60387;49.994;14.660;2022-08-01T10:48:14;3.43;;;1.50;;
71914;SDS011;60387;49.994;14.660;2022-08-01T10:50:52;3.67;;;1.52;;
71914;SDS011;60387;49.994;14.660;2022-08-01T10:53:28;4.90;;;1.73;;
71914;SDS011;60387;49.994;14.660;2022-08-01T10:56:02;4.45;;;1.67;;
71914;SDS011;60387;49.994;14.660;2022-08-01T10:58:37;2.88;;;1.48;;
71914;SDS011;60387;49.994;14.660;2022-08-01T11:03:58;4.90;;;1.58;;
71914;SDS011;60387;49.994;14.660;2022-08-01T11:17:34;3.42;;;1.23;;
71914;SDS011;60387;49.994;14.660;2022-08-01T11:31:30;1.55;;;0.88;;
71914;SDS011;60387;49.994;14.660;2022-08-01T11:33:47;2.90;;;1.13;;
71914;SDS011;60387;49.994;14.660;2022-08-01T11:36:21;1.67;;;0.93;;
71914;SDS011;60387;49.994;14.660;2022-08-01T11:41:31;2.47;;;0.93;;
71914;SDS011;60387;49.994;14.660;2022-08-01T11:44:07;2.67;;;0.80;;
71914;SDS011;60387;49.994;14.660;2022-08-01T11:52:25;1.97;;;1.00;;
71914;SDS011;60387;49.994;14.660;2022-08-01T11:55:06;2.35;;;1.05;;
71914;SDS011;60387;49.994;14.660;2022-08-01T11:57:41;2.20;;;0.80;;
71914;SDS011;60387;49.994;14.660;2022-08-01T12:00:15;2.53;;;0.80;;
71914;SDS011;60387;49.994;14.660;2022-08-01T12:03:06;2.80;;;0.88;;
71914;SDS011;60387;49.994;14.660;2022-08-01T12:05:43;4.75;;;0.90;;
71914;SDS011;60387;49.994;14.660;2022-08-01T12:08:26;2.50;;;1.00;;
71914;SDS011;60387;49.994;14.660;2022-08-01T12:11:02;3.13;;;0.85;;
71914;SDS011;60387;49.994;14.660;2022-08-01T12:13:40;3.00;;;1.00;;
71914;SDS011;60387;49.994;14.660;2022-08-01T12:16:14;2.80;;;0.85;;
71914;SDS011;60387;49.994;14.660;2022-08-01T12:18:47;1.50;;;0.70;;
71914;SDS011;60387;49.994;14.660;2022-08-01T12:21:20;1.87;;;0.80;;
71914;SDS011;60387;49.994;14.660;2022-08-01T12:24:00;3.73;;;0.90;;
71914;SDS011;60387;49.994;14.660;2022-08-01T12:26:41;3.65;;;0.90;;
71914;SDS011;60387;49.994;14.660;2022-08-01T12:29:30;2.00;;;0.75;;
71914;SDS011;60387;49.994;14.660;2022-08-01T12:32:32;2.17;;;0.80;;
71914;SDS011;60387;49.994;14.660;2022-08-01T12:37:48;3.55;;;1.10;;
71914;SDS011;60387;49.994;14.660;2022-08-01T12:40:24;3.45;;;1.30;;
71914;SDS011;60387;49.994;14.660;2022-08-01T12:43:06;2.65;;;1.00;;
71914;SDS011;60387;49.994;14.660;2022-08-01T12:45:41;2.90;;;1.00;;
71914;SDS011;60387;49.994;14.660;2022-08-01T12:48:16;2.90;;;1.20;;
71914;SDS011;60387;49.994;14.660;2022-08-01T12:50:51;4.32;;;1.08;;
71914;SDS011;60387;49.994;14.660;2022-08-01T12:53:25;2.72;;;1.10;;
71914;SDS011;60387;49.994;14.660;2022-08-01T12:55:59;3.85;;;1.60;;
71914;SDS011;60387;49.994;14.660;2022-08-01T12:58:32;3.30;;;1.60;;
71914;SDS011;60387;49.994;14.660;2022-08-01T13:01:09;2.88;;;1.48;;
71914;SDS011;60387;49.994;14.660;2022-08-01T13:03:56;5.20;;;1.50;;
71914;SDS011;60387;49.994;14.660;2022-08-01T13:06:35;2.75;;;1.02;;
71914;SDS011;60387;49.994;14.660;2022-08-01T13:09:10;3.13;;;1.38;;
71914;SDS011;60387;49.994;14.660;2022-08-01T13:11:44;2.80;;;1.20;;
71914;SDS011;60387;49.994;14.660;2022-08-01T13:14:29;2.38;;;1.05;;
71914;SDS011;60387;49.994;14.660;2022-08-01T13:17:03;4.82;;;1.08;;
71914;SDS011;60387;49.994;14.660;2022-08-01T13:19:42;2.30;;;1.17;;
71914;SDS011;60387;49.994;14.660;2022-08-01T13:22:16;2.33;;;1.20;;
71914;SDS011;60387;49.994;14.660;2022-08-01T13:24:50;2.58;;;1.20;;
71914;SDS011;60387;49.994;14.660;2022-08-01T13:27:23;2.43;;;1.27;;
71914;SDS011;60387;49.994;14.660;2022-08-01T13:29:56;2.90;;;1.33;;
71914;SDS011;60387;49.994;14.660;2022-08-01T13:32:58;3.55;;;1.20;;
71914;SDS011;60387;49.994;14.660;2022-08-01T13:35:32;2.47;;;1.13;;
71914;SDS011;60387;49.994;14.660;2022-08-01T13:38:05;2.77;;;0.93;;
71914;SDS011;60387;49.994;14.660;2022-08-01T13:40:38;3.37;;;1.50;;
71914;SDS011;60387;49.994;14.660;2022-08-01T13:43:12;2.87;;;1.30;;
71914;SDS011;60387;49.994;14.660;2022-08-01T13:45:45;3.63;;;1.20;;
71914;SDS011;60387;49.994;14.660;2022-08-01T13:48:18;2.40;;;1.20;;
71914;SDS011;60387;49.994;14.660;2022-08-01T13:50:51;2.17;;;0.90;;
71914;SDS011;60387;49.994;14.660;2022-08-01T13:53:25;4.03;;;0.90;;
71914;SDS011;60387;49.994;14.660;2022-08-01T13:55:59;2.88;;;1.10;;
71914;SDS011;60387;49.994;14.660;2022-08-01T13:58:32;3.30;;;0.97;;
71914;SDS011;60387;49.994;14.660;2022-08-01T14:01:05;1.70;;;0.83;;
71914;SDS011;60387;49.994;14.660;2022-08-01T14:03:38;2.90;;;0.97;;
71914;SDS011;60387;49.994;14.660;2022-08-01T14:06:12;2.53;;;0.93;;
71914;SDS011;60387;49.994;14.660;2022-08-01T14:08:46;2.67;;;0.88;;
71914;SDS011;60387;49.994;14.660;2022-08-01T14:11:19;1.80;;;0.70;;
71914;SDS011;60387;49.994;14.660;2022-08-01T14:13:53;2.35;;;0.80;;
71914;SDS011;60387;49.994;14.660;2022-08-01T14:16:27;1.63;;;0.60;;
71914;SDS011;60387;49.994;14.660;2022-08-01T14:19:01;2.70;;;1.00;;
71914;SDS011;60387;49.994;14.660;2022-08-01T14:21:34;1.67;;;0.83;;
71914;SDS011;60387;49.994;14.660;2022-08-01T14:24:07;3.93;;;1.03;;
71914;SDS011;60387;49.994;14.660;2022-08-01T14:26:41;1.97;;;1.00;;
71914;SDS011;60387;49.994;14.660;2022-08-01T14:29:14;3.93;;;1.00;;
71914;SDS011;60387;49.994;14.660;2022-08-01T14:31:47;2.57;;;0.77;;
71914;SDS011;60387;49.994;14.660;2022-08-01T14:34:21;1.73;;;0.77;;
71914;SDS011;60387;49.994;14.660;2022-08-01T14:36:54;2.43;;;0.70;;
71914;SDS011;60387;49.994;14.660;2022-08-01T14:39:27;2.47;;;0.90;;
71914;SDS011;60387;49.994;14.660;2022-08-01T14:42:00;2.97;;;1.10;;
71914;SDS011;60387;49.994;14.660;2022-08-01T14:44:34;2.70;;;0.90;;
71914;SDS011;60387;49.994;14.660;2022-08-01T14:47:07;2.13;;;1.00;;
71914;SDS011;60387;49.994;14.660;2022-08-01T14:49:40;4.67;;;1.10;;
71914;SDS011;60387;49.994;14.660;2022-08-01T14:52:14;4.50;;;1.00;;
71914;SDS011;60387;49.994;14.660;2022-08-01T14:54:47;3.63;;;1.30;;
71914;SDS011;60387;49.994;14.660;2022-08-01T14:57:20;2.40;;;1.07;;
71914;SDS011;60387;49.994;14.660;2022-08-01T14:59:53;4.10;;;1.07;;
71914;SDS011;60387;49.994;14.660;2022-08-01T15:02:27;2.58;;;1.02;;
71914;SDS011;60387;49.994;14.660;2022-08-01T15:05:00;3.10;;;1.33;;
71914;SDS011;60387;49.994;14.660;2022-08-01T15:07:33;2.93;;;1.10;;
71914;SDS011;60387;49.994;14.660;2022-08-01T15:10:07;3.63;;;1.30;;
71914;SDS011;60387;49.994;14.660;2022-08-01T15:12:41;3.75;;;1.30;;
71914;SDS011;60387;49.994;14.660;2022-08-01T15:15:14;3.17;;;1.20;;
71914;SDS011;60387;49.994;14.660;2022-08-01T15:17:47;2.80;;;0.90;;
71914;SDS011;60387;49.994;14.660;2022-08-01T15:20:21;3.67;;;1.23;;
71914;SDS011;60387;49.994;14.660;2022-08-01T15:22:54;3.13;;;1.20;;
71914;SDS011;60387;49.994;14.660;2022-08-01T15:25:27;3.83;;;1.10;;
71914;SDS011;60387;49.994;14.660;2022-08-01T15:28:01;2.70;;;1.00;;
71914;SDS011;60387;49.994;14.660;2022-08-01T15:30:34;3.70;;;1.30;;
71914;SDS011;60387;49.994;14.660;2022-08-01T15:33:07;3.67;;;0.87;;
71914;SDS011;60387;49.994;14.660;2022-08-01T15:35:41;3.33;;;1.10;;
71914;SDS011;60387;49.994;14.660;2022-08-01T15:38:14;1.97;;;0.80;;
71914;SDS011;60387;49.994;14.660;2022-08-01T15:40:47;1.93;;;0.90;;
71914;SDS011;60387;49.994;14.660;2022-08-01T15:43:21;3.78;;;1.00;;
71914;SDS011;60387;49.994;14.660;2022-08-01T15:45:54;3.40;;;0.80;;
71914;SDS011;60387;49.994;14.660;2022-08-01T15:48:27;1.83;;;0.63;;
71914;SDS011;60387;49.994;14.660;2022-08-01T15:51:01;2.03;;;0.80;;
71914;SDS011;60387;49.994;14.660;2022-08-01T15:53:34;2.00;;;1.00;;
71914;SDS011;60387;49.994;14.660;2022-08-01T15:56:07;2.57;;;1.00;;
71914;SDS011;60387;49.994;14.660;2022-08-01T15:58:41;3.78;;;1.30;;
71914;SDS011;60387;49.994;14.660;2022-08-01T16:01:14;2.47;;;0.90;;
71914;SDS011;60387;49.994;14.660;2022-08-01T16:03:47;2.07;;;0.80;;
71914;SDS011;60387;49.994;14.660;2022-08-01T16:06:21;4.50;;;1.00;;
71914;SDS011;60387;49.994;14.660;2022-08-01T16:08:55;2.10;;;0.98;;
71914;SDS011;60387;49.994;14.660;2022-08-01T16:11:29;3.03;;;1.00;;
71914;SDS011;60387;49.994;14.660;2022-08-01T16:14:02;2.80;;;1.30;;